Time;durP1;ratioP1;P1;durP2;ratioP2;P2;SDS_P1;SDS_P2;PMS_P1;PMS_P2;Temp;Humidity;BMP_temperature;BMP_pressure;BME280_temperature;BME280_humidity;BME280_pressure;Samples;Min_cycle;Max_cycle;Signal;HPM_P1;HPM_P2
2023/05/07 00:02:03;;;;;;;2.90;2.03;;;13.00;1.00;;;;;;5025475;28;20048;-81
2023/05/07 00:04:35;;;;;;;3.47;2.38;;;13.00;1.00;;;;;;5020014;28;20034;-82
2023/05/07 00:07:02;;;;;;;4.38;1.90;;;12.90;1.00;;;;;;5024626;28;20033;-82
2023/05/07 00:09:28;;;;;;;3.58;1.92;;;12.90;1.00;;;;;;5021039;28;20034;-82
2023/05/07 00:11:54;;;;;;;4.18;1.77;;;12.80;1.00;;;;;;5024753;28;20048;-81
2023/05/07 00:14:21;;;;;;;2.85;1.60;;;12.80;1.00;;;;;;5024161;28;20041;-82
2023/05/07 00:16:47;;;;;;;2.55;2.17;;;12.70;1.00;;;;;;5036409;28;20033;-82
2023/05/07 00:19:13;;;;;;;4.25;2.08;;;12.60;1.00;;;;;;5022315;28;20378;-83
2023/05/07 00:21:39;;;;;;;3.17;1.98;;;12.60;1.00;;;;;;5020562;28;20030;-82
2023/05/07 00:24:06;;;;;;;6.03;2.33;;;12.50;1.00;;;;;;5023383;28;20034;-82
2023/05/07 00:26:32;;;;;;;5.03;1.92;;;12.50;1.00;;;;;;5029528;28;20386;-82
2023/05/07 00:28:58;;;;;;;3.00;1.83;;;12.50;1.00;;;;;;5022843;28;20044;-82
2023/05/07 00:31:24;;;;;;;4.43;1.85;;;12.50;1.00;;;;;;5014048;28;20037;-83
2023/05/07 00:33:51;;;;;;;6.13;2.38;;;12.50;1.00;;;;;;5022631;28;20049;-83
2023/05/07 00:36:17;;;;;;;6.30;2.75;;;12.50;1.00;;;;;;5026401;28;20029;-83
2023/05/07 00:38:43;;;;;;;4.10;2.33;;;12.50;1.00;;;;;;5026123;28;20041;-85
2023/05/07 00:41:09;;;;;;;2.58;2.00;;;12.40;1.00;;;;;;5024391;28;20045;-83
2023/05/07 00:43:35;;;;;;;6.10;2.60;;;12.40;1.00;;;;;;5024809;28;20482;-83
2023/05/07 00:46:02;;;;;;;6.05;2.50;;;12.40;1.00;;;;;;5021118;28;20034;-82
2023/05/07 00:48:28;;;;;;;3.90;2.00;;;12.30;1.00;;;;;;5036960;28;20050;-82
2023/05/07 00:50:55;;;;;;;3.47;2.20;;;12.30;1.00;;;;;;5021200;28;20037;-82
2023/05/07 00:53:21;;;;;;;3.20;2.28;;;12.20;1.00;;;;;;5037625;28;20045;-83
2023/05/07 00:55:48;;;;;;;5.75;2.90;;;12.10;1.00;;;;;;5023397;28;20030;-83
2023/05/07 00:58:16;;;;;;;5.32;2.22;;;12.10;1.00;;;;;;5028629;28;20042;-83
2023/05/07 01:00:42;;;;;;;8.07;3.35;;;12.10;1.00;;;;;;5019845;28;20033;-83
2023/05/07 01:03:09;;;;;;;5.45;2.33;;;12.10;1.00;;;;;;5033568;28;20041;-83
2023/05/07 01:05:35;;;;;;;3.58;2.38;;;12.10;1.00;;;;;;5027367;28;20044;-83
2023/05/07 01:08:03;;;;;;;3.78;2.40;;;11.90;1.00;;;;;;5040960;28;20052;-83
2023/05/07 01:10:30;;;;;;;2.88;2.10;;;11.70;1.00;;;;;;5020871;28;20070;-83
2023/05/07 01:12:59;;;;;;;4.93;2.60;;;11.70;3.90;;;;;;5040683;28;20466;-83
2023/05/07 01:15:25;;;;;;;2.97;2.22;;;11.60;11.40;;;;;;5008355;28;20486;-83
2023/05/07 01:17:52;;;;;;;3.83;2.25;;;11.50;26.90;;;;;;5038563;28;20053;-83
2023/05/07 01:20:25;;;;;;;3.92;2.20;;;11.40;36.40;;;;;;5039570;28;20037;-83
2023/05/07 01:22:54;;;;;;;4.95;2.40;;;11.40;45.50;;;;;;5040320;28;20480;-83
2023/05/07 01:25:21;;;;;;;3.75;3.17;;;11.30;50.10;;;;;;5024855;28;20034;-83
2023/05/07 01:27:51;;;;;;;;;;;11.30;55.00;;;;;;5036605;28;20036;-83
2023/05/07 01:30:21;;;;;;;2.08;1.88;;;11.40;63.00;;;;;;5035865;28;19920;-82
2023/05/07 01:33:13;;;;;;;6.38;2.55;;;11.50;64.30;;;;;;5023466;28;20378;-83
2023/05/07 01:35:45;;;;;;;4.88;2.33;;;11.60;45.30;;;;;;5020410;28;20034;-83
2023/05/07 01:38:12;;;;;;;3.58;2.60;;;11.60;29.00;;;;;;5025729;28;20452;-84
2023/05/07 01:40:38;;;;;;;3.08;2.28;;;11.60;25.90;;;;;;5026057;28;20022;-83
2023/05/07 01:43:05;;;;;;;6.60;3.00;;;11.60;27.30;;;;;;5025888;28;20046;-82
2023/05/07 01:45:34;;;;;;;5.95;3.08;;;11.60;27.90;;;;;;5030752;28;20466;-83
2023/05/07 01:48:02;;;;;;;4.13;2.50;;;11.50;30.50;;;;;;5028171;28;20030;-82
2023/05/07 01:50:30;;;;;;;4.63;2.60;;;11.50;37.00;;;;;;5035000;28;20050;-83
2023/05/07 01:52:56;;;;;;;6.85;3.15;;;11.50;39.90;;;;;;5031474;28;20458;-83
2023/05/07 01:55:23;;;;;;;6.43;2.90;;;11.50;41.40;;;;;;5040924;28;20046;-83
2023/05/07 01:57:50;;;;;;;4.03;2.70;;;11.40;44.20;;;;;;5028113;28;20635;-83
2023/05/07 02:00:17;;;;;;;5.43;3.38;;;11.40;47.90;;;;;;5021649;28;20045;-82
2023/05/07 02:02:44;;;;;;;5.15;3.00;;;11.50;53.80;;;;;;5043138;28;20045;-82
2023/05/07 02:05:22;;;;;;;5.72;2.65;;;11.50;43.80;;;;;;5039486;28;20045;-83
2023/05/07 02:07:55;;;;;;;3.85;2.72;;;11.50;40.50;;;;;;5038291;28;20048;-83
2023/05/07 02:10:22;;;;;;;4.85;2.78;;;11.50;35.40;;;;;;5021805;28;20363;-83
2023/05/07 02:12:48;;;;;;;5.53;2.92;;;11.50;29.40;;;;;;5032338;28;20037;-83
2023/05/07 02:15:14;;;;;;;3.75;2.65;;;11.40;30.30;;;;;;5024740;28;20407;-83
2023/05/07 02:18:06;;;;;;;3.53;2.70;;;11.40;37.60;;;;;;5040384;28;20040;-83
2023/05/07 02:20:32;;;;;;;5.05;3.05;;;11.40;32.00;;;;;;5028687;28;20489;-83
2023/05/07 02:23:00;;;;;;;3.33;2.30;;;11.40;30.60;;;;;;5024531;28;20029;-83
2023/05/07 02:25:29;;;;;;;3.43;2.23;;;11.30;33.70;;;;;;5026520;28;20045;-83
2023/05/07 02:27:56;;;;;;;8.90;3.42;;;11.30;42.50;;;;;;5028575;28;20272;-83
2023/05/07 02:30:29;;;;;;;5.75;3.33;;;11.30;52.50;;;;;;5025288;28;20454;-81
2023/05/07 02:32:58;;;;;;;5.05;2.95;;;11.30;53.20;;;;;;5029394;28;20045;-82
2023/05/07 02:35:25;;;;;;;3.28;2.40;;;11.20;43.60;;;;;;5025121;28;20022;-82
2023/05/07 02:37:52;;;;;;;3.97;2.88;;;11.10;45.60;;;;;;5031936;28;20037;-82
2023/05/07 02:40:19;;;;;;;5.68;3.58;;;11.10;50.90;;;;;;5019785;28;20068;-82
2023/05/07 02:42:45;;;;;;;4.30;3.25;;;11.10;58.30;;;;;;5029967;28;20386;-81
2023/05/07 02:45:11;;;;;;;4.75;3.03;;;11.20;65.50;;;;;;5032038;28;20041;-82
2023/05/07 02:47:38;;;;;;;7.90;3.58;;;11.20;74.00;;;;;;5040205;28;20049;-82
2023/05/07 02:50:05;;;;;;;6.70;3.10;;;11.30;66.40;;;;;;5024477;28;20377;-81
2023/05/07 02:52:32;;;;;;;3.85;2.75;;;11.30;49.50;;;;;;5027141;28;20351;-81
2023/05/07 02:54:58;;;;;;;4.90;3.05;;;11.30;36.10;;;;;;5029329;28;20056;-82
2023/05/07 02:57:24;;;;;;;4.03;2.42;;;11.20;27.10;;;;;;5026528;28;20022;-82
2023/05/07 02:59:51;;;;;;;5.00;3.03;;;11.20;33.10;;;;;;5022578;28;20037;-82
2023/05/07 03:02:20;;;;;;;4.15;2.78;;;11.20;44.00;;;;;;5010482;28;20359;-82
2023/05/07 03:04:46;;;;;;;6.78;3.95;;;11.20;47.00;;;;;;5026832;28;20038;-82
2023/05/07 03:07:12;;;;;;;6.15;4.18;;;11.20;51.10;;;;;;5022608;28;20032;-82
2023/05/07 03:09:38;;;;;;;6.25;3.10;;;11.20;54.30;;;;;;5025546;28;20398;-82
2023/05/07 03:12:05;;;;;;;5.25;3.15;;;11.20;60.30;;;;;;5039598;28;20044;-81
2023/05/07 03:14:32;;;;;;;4.60;3.40;;;11.20;59.50;;;;;;5043497;28;20085;-81
2023/05/07 03:16:58;;;;;;;4.45;3.40;;;11.20;66.90;;;;;;5022379;28;20041;-82
2023/05/07 03:19:24;;;;;;;6.05;3.17;;;11.20;69.20;;;;;;5041170;28;20061;-81
2023/05/07 03:21:51;;;;;;;4.75;3.45;;;11.10;63.70;;;;;;5027397;28;20029;-81
2023/05/07 03:24:17;;;;;;;4.95;3.03;;;11.10;75.40;;;;;;5020862;28;20036;-80
2023/05/07 03:26:43;;;;;;;5.78;3.50;;;11.20;92.80;;;;;;5015001;28;20052;-81
2023/05/07 03:29:09;;;;;;;4.75;3.78;;;11.30;97.00;;;;;;5022770;28;20371;-81
2023/05/07 03:31:36;;;;;;;5.68;3.75;;;11.20;86.90;;;;;;5027006;28;20040;-80
2023/05/07 03:34:02;;;;;;;5.07;4.05;;;11.20;94.20;;;;;;5021515;28;20042;-81
2023/05/07 03:36:28;;;;;;;5.65;3.70;;;11.30;93.40;;;;;;5029668;28;20037;-80
2023/05/07 03:38:56;;;;;;;7.35;4.40;;;11.20;92.20;;;;;;5028905;28;20043;-82
2023/05/07 03:41:25;;;;;;;5.15;3.88;;;11.30;94.20;;;;;;5025286;28;20052;-81
2023/05/07 03:43:52;;;;;;;5.18;3.80;;;11.30;96.80;;;;;;5014847;28;20037;-82
2023/05/07 03:46:18;;;;;;;6.20;3.72;;;11.30;96.40;;;;;;5022211;28;20041;-81
2023/05/07 03:48:44;;;;;;;6.05;3.50;;;11.30;97.20;;;;;;5027867;28;20030;-81
2023/05/07 03:51:13;;;;;;;4.97;3.40;;;11.20;97.10;;;;;;5025622;28;20045;-81
2023/05/07 03:53:40;;;;;;;5.00;3.83;;;11.20;96.40;;;;;;5026099;28;20046;-81
2023/05/07 03:56:06;;;;;;;5.78;3.63;;;11.20;96.40;;;;;;5025617;28;20558;-82
2023/05/07 03:58:36;;;;;;;5.72;3.65;;;11.20;95.50;;;;;;5023513;28;20045;-84
2023/05/07 04:01:07;;;;;;;8.63;3.92;;;11.20;92.60;;;;;;5039101;28;20375;-81
2023/05/07 04:03:33;;;;;;;5.72;3.80;;;11.10;88.50;;;;;;5027627;28;20041;-82
2023/05/07 04:06:00;;;;;;;6.63;5.10;;;11.10;91.20;;;;;;5022945;28;20315;-81
2023/05/07 04:08:27;;;;;;;5.07;3.50;;;11.10;92.10;;;;;;5024624;28;20049;-82
2023/05/07 04:10:55;;;;;;;4.43;3.45;;;11.10;73.00;;;;;;5035629;28;20037;-82
2023/05/07 04:13:22;;;;;;;7.20;3.38;;;11.10;73.70;;;;;;5014444;28;20056;-82
2023/05/07 04:15:49;;;;;;;6.00;3.80;;;11.00;74.90;;;;;;5044220;28;20038;-82
2023/05/07 04:18:18;;;;;;;6.07;4.45;;;10.90;84.40;;;;;;5038911;28;20052;-82
2023/05/07 04:20:46;;;;;;;18.83;11.95;;;11.00;91.30;;;;;;5018610;28;20045;-82
2023/05/07 04:23:14;;;;;;;12.32;6.68;;;10.90;90.00;;;;;;5037663;28;20029;-81
2023/05/07 04:25:41;;;;;;;7.32;4.20;;;11.00;84.10;;;;;;5034214;28;20040;-81
2023/05/07 04:28:21;;;;;;;5.28;3.42;;;11.00;83.10;;;;;;5039934;28;20046;-82
2023/05/07 04:30:49;;;;;;;6.13;3.90;;;11.00;82.90;;;;;;5033873;28;20045;-81
2023/05/07 04:33:18;;;;;;;7.90;3.78;;;11.00;84.60;;;;;;5040875;28;20041;-82
2023/05/07 04:35:46;;;;;;;4.95;3.05;;;11.20;90.00;;;;;;5038391;28;20607;-81
2023/05/07 04:38:12;;;;;;;5.00;3.40;;;11.30;76.30;;;;;;5043060;28;20041;-82
2023/05/07 04:40:38;;;;;;;7.05;3.65;;;11.50;52.70;;;;;;5034547;28;20041;-82
2023/05/07 04:43:07;;;;;;;7.80;3.38;;;11.60;31.60;;;;;;5014640;28;20038;-82
2023/05/07 04:45:41;;;;;;;5.03;2.55;;;11.60;9.70;;;;;;5030082;28;20497;-82
2023/05/07 04:48:09;;;;;;;3.92;3.03;;;11.70;1.00;;;;;;5023816;28;20042;-82
2023/05/07 04:50:37;;;;;;;3.10;2.67;;;11.80;1.00;;;;;;5019652;28;20056;-82
2023/05/07 04:53:04;;;;;;;5.38;2.45;;;11.80;1.00;;;;;;5025786;28;20034;-81
2023/05/07 04:55:30;;;;;;;3.25;2.10;;;11.80;1.00;;;;;;5030004;28;20042;-82
2023/05/07 04:57:56;;;;;;;3.63;2.70;;;11.80;1.00;;;;;;5020866;28;20042;-82
2023/05/07 05:00:25;;;;;;;5.43;2.65;;;11.80;1.00;;;;;;5009678;28;20041;-82
2023/05/07 05:02:52;;;;;;;4.72;2.53;;;12.00;1.00;;;;;;5024085;28;20045;-84
2023/05/07 05:05:21;;;;;;;4.53;3.15;;;12.10;1.00;;;;;;5024282;28;20037;-82
2023/05/07 05:07:51;;;;;;;4.97;3.08;;;12.30;1.00;;;;;;5008056;28;20038;-82
2023/05/07 05:10:17;;;;;;;4.00;3.05;;;12.50;1.00;;;;;;5027729;28;20051;-82
2023/05/07 05:12:44;;;;;;;7.68;3.28;;;12.60;1.00;;;;;;5027095;28;20045;-82
2023/05/07 05:15:12;;;;;;;4.55;2.90;;;12.70;1.00;;;;;;5021863;28;20060;-82
2023/05/07 05:17:39;;;;;;;6.80;3.30;;;12.70;1.00;;;;;;5042923;28;20037;-82
2023/05/07 05:20:06;;;;;;;3.63;2.60;;;12.70;1.00;;;;;;5047260;28;20525;-82
2023/05/07 05:22:33;;;;;;;4.07;2.50;;;12.80;1.00;;;;;;5030847;28;20041;-82
2023/05/07 05:25:01;;;;;;;7.30;4.13;;;12.90;1.00;;;;;;5031166;28;20046;-82
2023/05/07 05:27:28;;;;;;;7.93;5.60;;;12.90;1.00;;;;;;5049632;28;20029;-82
2023/05/07 05:29:54;;;;;;;6.35;3.45;;;12.90;1.00;;;;;;5032313;28;20034;-83
2023/05/07 05:32:21;;;;;;;4.97;4.00;;;12.90;1.00;;;;;;5008351;28;20041;-82
2023/05/07 05:34:48;;;;;;;4.68;2.35;;;13.10;1.00;;;;;;5033021;28;20390;-82
2023/05/07 05:37:14;;;;;;;7.05;3.10;;;13.30;1.00;;;;;;5032908;28;20048;-81
2023/05/07 05:39:42;;;;;;;4.72;2.78;;;13.60;1.00;;;;;;5029344;28;20045;-82
2023/05/07 05:42:10;;;;;;;4.80;3.33;;;13.80;1.00;;;;;;5041369;28;20038;-82
2023/05/07 05:44:37;;;;;;;6.70;3.15;;;13.90;1.00;;;;;;5024324;28;20040;-82
2023/05/07 05:47:03;;;;;;;5.43;3.05;;;13.90;1.00;;;;;;5023744;28;20038;-84
2023/05/07 05:49:30;;;;;;;6.28;3.33;;;13.80;1.00;;;;;;5027809;28;20398;-84
2023/05/07 05:51:56;;;;;;;4.75;3.28;;;13.90;1.00;;;;;;5021485;28;20025;-84
2023/05/07 05:54:24;;;;;;;4.65;3.08;;;13.90;1.00;;;;;;5045562;28;20394;-83
2023/05/07 05:56:51;;;;;;;3.83;2.72;;;14.20;1.00;;;;;;5041309;28;20046;-84
2023/05/07 05:59:17;;;;;;;5.30;3.30;;;14.40;1.00;;;;;;5022214;28;20041;-84
2023/05/07 06:01:43;;;;;;;4.53;3.03;;;14.50;1.00;;;;;;5024731;28;20049;-83
2023/05/07 06:04:09;;;;;;;3.45;3.05;;;14.60;1.00;;;;;;5040386;28;20037;-83
2023/05/07 06:06:36;;;;;;;4.72;2.63;;;14.50;1.00;;;;;;5033025;28;20061;-84
2023/05/07 06:09:03;;;;;;;6.72;2.85;;;14.60;1.00;;;;;;5036415;28;20033;-83
2023/05/07 06:11:36;;;;;;;4.78;2.92;;;14.90;1.00;;;;;;5037961;28;20060;-84
2023/05/07 06:14:02;;;;;;;3.75;2.35;;;15.50;1.00;;;;;;5028141;28;20049;-85
2023/05/07 06:16:30;;;;;;;4.13;2.03;;;15.70;99.90;;;;;;5046167;28;20056;-84
2023/05/07 06:18:57;;;;;;;3.75;2.28;;;16.10;99.90;;;;;;5043649;28;20401;-83
2023/05/07 06:21:26;;;;;;;5.30;2.33;;;16.40;99.90;;;;;;5034994;28;20390;-83
2023/05/07 06:23:54;;;;;;;3.15;2.28;;;16.50;99.90;;;;;;5043288;28;20049;-83
2023/05/07 06:26:21;;;;;;;4.22;1.70;;;16.50;99.90;;;;;;5026968;28;20048;-83
2023/05/07 06:28:48;;;;;;;3.03;2.40;;;16.40;99.90;;;;;;5044846;28;20041;-84
2023/05/07 06:31:20;;;;;;;5.15;2.67;;;16.30;99.90;;;;;;5041061;28;20450;-84
2023/05/07 06:33:52;;;;;;;8.90;3.75;;;16.70;99.90;;;;;;5020396;28;20041;-84
2023/05/07 06:36:18;;;;;;;7.18;4.47;;;16.90;99.90;;;;;;5040837;28;20037;-84
2023/05/07 06:38:45;;;;;;;3.03;1.75;;;16.90;99.90;;;;;;5024709;28;20038;-83
2023/05/07 06:41:14;;;;;;;4.28;1.67;;;16.70;99.90;;;;;;5024425;28;20120;-84
2023/05/07 06:43:40;;;;;;;4.68;1.95;;;16.60;99.90;;;;;;5018767;28;20387;-83
2023/05/07 06:46:30;;;;;;;2.78;1.25;;;16.30;99.90;;;;;;5030835;28;20050;-84
2023/05/07 06:48:57;;;;;;;4.30;1.98;;;16.40;99.90;;;;;;5032110;28;20045;-83
2023/05/07 06:51:23;;;;;;;7.15;3.05;;;16.50;99.90;;;;;;5025148;28;20459;-79
2023/05/07 06:53:50;;;;;;;2.97;1.63;;;16.50;99.90;;;;;;5043221;28;20034;-82
2023/05/07 06:56:16;;;;;;;2.22;1.40;;;16.60;99.90;;;;;;5037204;28;20049;-82
2023/05/07 06:58:42;;;;;;;3.22;1.90;;;16.90;99.90;;;;;;5045327;28;20044;-83
2023/05/07 07:01:10;;;;;;;2.53;1.85;;;17.10;99.90;;;;;;5035533;28;20105;-83
2023/05/07 07:03:37;;;;;;;3.05;1.48;;;17.20;99.90;;;;;;5037160;28;20060;-82
2023/05/07 07:06:04;;;;;;;3.05;1.92;;;17.30;99.90;;;;;;5031558;28;20025;-82
2023/05/07 07:08:30;;;;;;;5.45;1.77;;;17.40;99.90;;;;;;5017066;28;20041;-79
2023/05/07 07:10:57;;;;;;;2.47;1.75;;;17.70;99.90;;;;;;5034031;28;20045;-81
2023/05/07 07:13:23;;;;;;;3.47;1.70;;;17.60;99.90;;;;;;5046809;28;20371;-83
2023/05/07 07:15:49;;;;;;;2.50;1.30;;;17.60;99.90;;;;;;5029771;28;20051;-80
2023/05/07 07:18:17;;;;;;;10.55;1.75;;;17.70;99.90;;;;;;5047577;28;20038;-80
2023/05/07 07:20:45;;;;;;;3.45;2.08;;;17.70;99.90;;;;;;5042276;28;20057;-81
2023/05/07 07:23:11;;;;;;;5.13;1.80;;;17.80;99.90;;;;;;5036428;28;20041;-76
2023/05/07 07:25:37;;;;;;;5.03;1.60;;;17.70;99.90;;;;;;5031435;28;20162;-77
2023/05/07 07:28:05;;;;;;;3.20;1.75;;;17.90;99.90;;;;;;5029373;28;20037;-78
2023/05/07 07:30:31;;;;;;;3.58;1.98;;;18.10;99.90;;;;;;5019286;28;20037;-78
2023/05/07 07:33:02;;;;;;;3.45;2.25;;;18.00;99.90;;;;;;5025905;28;20026;-78
2023/05/07 07:35:30;;;;;;;2.55;1.75;;;18.00;99.90;;;;;;5025152;28;20045;-81
2023/05/07 07:37:56;;;;;;;3.00;1.67;;;18.10;99.90;;;;;;5031303;28;20033;-77
2023/05/07 07:40:22;;;;;;;7.72;2.90;;;18.20;99.90;;;;;;5029061;28;20041;-77
2023/05/07 07:42:49;;;;;;;3.55;2.47;;;18.40;99.90;;;;;;5031020;28;20048;-77
2023/05/07 07:45:15;;;;;;;2.65;1.50;;;18.30;99.90;;;;;;5027625;28;20362;-78
2023/05/07 07:47:46;;;;;;;6.05;1.80;;;18.10;99.90;;;;;;5031285;28;20045;-78
2023/05/07 07:50:12;;;;;;;3.85;1.83;;;18.00;99.90;;;;;;5027157;28;20049;-78
2023/05/07 07:52:40;;;;;;;2.97;1.90;;;17.90;99.90;;;;;;5039417;28;20034;-78
2023/05/07 07:55:08;;;;;;;4.70;1.55;;;18.00;99.90;;;;;;5038461;28;20076;-79
2023/05/07 07:57:34;;;;;;;2.65;1.50;;;18.00;99.90;;;;;;5025468;28;20351;-78
2023/05/07 08:00:01;;;;;;;3.35;1.70;;;17.90;99.90;;;;;;5026546;28;20489;-80
2023/05/07 08:02:31;;;;;;;9.48;1.83;;;17.90;99.90;;;;;;5028630;28;20056;-77
2023/05/07 08:04:58;;;;;;;4.55;1.52;;;17.80;99.90;;;;;;5025992;28;20037;-78
2023/05/07 08:07:24;;;;;;;3.55;1.48;;;18.00;99.90;;;;;;5020273;28;20037;-78
2023/05/07 08:09:51;;;;;;;2.47;1.60;;;18.20;99.90;;;;;;5024831;28;20064;-77
2023/05/07 08:12:22;;;;;;;2.00;1.55;;;18.20;99.90;;;;;;5026140;28;20046;-78
2023/05/07 08:14:49;;;;;;;2.63;1.88;;;18.00;99.90;;;;;;5028418;28;20026;-79
2023/05/07 08:17:16;;;;;;;3.85;1.75;;;17.90;99.90;;;;;;5027736;28;20501;-79
2023/05/07 08:19:43;;;;;;;3.03;1.65;;;17.90;99.90;;;;;;5025283;28;20489;-78
2023/05/07 08:22:12;;;;;;;2.75;2.00;;;17.90;99.90;;;;;;5040215;28;20041;-78
2023/05/07 08:24:39;;;;;;;3.30;1.67;;;17.90;99.90;;;;;;5026804;28;20053;-78
2023/05/07 08:27:05;;;;;;;7.20;1.77;;;18.00;99.90;;;;;;5025334;28;20033;-79
2023/05/07 08:29:31;;;;;;;4.43;1.60;;;18.20;99.90;;;;;;5025624;28;20041;-78
2023/05/07 08:31:59;;;;;;;3.45;1.67;;;18.40;99.90;;;;;;5043029;28;20049;-78
2023/05/07 08:34:25;;;;;;;4.18;1.50;;;18.40;99.90;;;;;;5038773;28;20109;-77
2023/05/07 08:36:53;;;;;;;2.58;1.70;;;18.50;99.90;;;;;;5030073;28;20046;-77
2023/05/07 08:39:22;;;;;;;5.78;1.45;;;18.50;99.90;;;;;;5036649;28;20038;-78
2023/05/07 08:41:55;;;;;;;4.97;1.58;;;18.60;99.90;;;;;;5035738;28;20042;-78
2023/05/07 08:44:24;;;;;;;3.50;1.60;;;18.60;99.90;;;;;;5008068;28;20049;-78
2023/05/07 08:46:53;;;;;;;3.28;1.90;;;18.70;99.90;;;;;;5022738;28;20048;-77
2023/05/07 08:49:20;;;;;;;2.95;1.70;;;18.80;99.90;;;;;;5037782;28;20949;-78
2023/05/07 08:51:47;;;;;;;4.50;1.70;;;18.90;99.90;;;;;;5021651;28;20045;-78
2023/05/07 08:54:16;;;;;;;3.25;1.70;;;19.10;99.90;;;;;;5043319;28;20060;-78
2023/05/07 08:56:42;;;;;;;3.95;1.90;;;19.10;99.90;;;;;;5032653;28;20025;-78
2023/05/07 08:59:09;;;;;;;2.53;1.30;;;19.20;99.90;;;;;;5038624;28;20501;-78
2023/05/07 09:01:35;;;;;;;2.88;2.10;;;19.10;99.90;;;;;;5029968;28;20045;-78
2023/05/07 09:04:02;;;;;;;5.65;1.38;;;19.00;99.90;;;;;;5042459;28;20045;-78
2023/05/07 09:06:30;;;;;;;2.80;1.52;;;19.20;99.90;;;;;;5029242;28;20088;-78
2023/05/07 09:08:58;;;;;;;1.90;1.40;;;19.20;96.40;;;;;;5028830;28;20056;-78
2023/05/07 09:11:28;;;;;;;3.95;1.60;;;19.70;73.20;;;;;;5027870;28;20033;-78
2023/05/07 09:13:59;;;;;;;3.53;1.50;;;20.30;40.80;;;;;;5044613;28;20042;-78
2023/05/07 09:16:26;;;;;;;3.90;1.20;;;20.30;18.30;;;;;;5031859;28;20407;-78
2023/05/07 09:18:54;;;;;;;3.88;1.42;;;20.30;22.40;;;;;;5040216;28;20037;-78
2023/05/07 09:21:22;;;;;;;2.30;1.10;;;20.40;18.60;;;;;;5026569;28;20046;-77
2023/05/07 09:23:52;;;;;;;3.37;1.33;;;20.30;16.60;;;;;;5023297;28;20037;-78
2023/05/07 09:26:24;;;;;;;1.93;0.93;;;20.10;13.00;;;;;;5044516;28;20041;-77
2023/05/07 09:28:51;;;;;;;;;;;20.40;14.40;;;;;;5027536;28;20033;-78
2023/05/07 09:31:17;;;;;;;2.47;1.52;;;20.70;9.50;;;;;;5043636;28;19920;-77
2023/05/07 09:33:44;;;;;;;2.55;1.45;;;21.70;1.00;;;;;;5042382;28;20034;-78
2023/05/07 09:36:14;;;;;;;2.50;1.05;;;21.30;1.00;;;;;;5032316;28;20398;-77
2023/05/07 09:38:41;;;;;;;5.43;1.30;;;21.10;1.00;;;;;;5033064;28;20033;-76
2023/05/07 09:41:12;;;;;;;1.58;1.02;;;21.30;1.00;;;;;;5027076;28;20317;-75
2023/05/07 09:44:00;;;;;;;2.55;0.80;;;21.30;1.00;;;;;;5028411;28;20046;-78
2023/05/07 09:46:32;;;;;;;3.88;1.10;;;21.20;1.00;;;;;;5029603;28;20057;-78
2023/05/07 09:49:06;;;;;;;2.00;1.10;;;21.30;1.00;;;;;;5029980;28;20038;-77
2023/05/07 09:51:41;;;;;;;4.20;1.65;;;21.40;1.00;;;;;;5032179;28;20382;-78
2023/05/07 09:54:07;;;;;;;1.92;1.20;;;21.60;1.00;;;;;;5030058;28;20120;-84
2023/05/07 09:56:37;;;;;;;3.15;1.38;;;22.10;1.00;;;;;;5029757;28;20044;-81
2023/05/07 09:59:06;;;;;;;2.33;1.38;;;22.50;1.00;;;;;;5025078;28;20482;-88
2023/05/07 10:01:36;;;;;;;3.22;1.23;;;24.00;1.00;;;;;;5019265;28;20044;-83
2023/05/07 10:04:04;;;;;;;1.33;0.73;;;25.30;1.00;;;;;;5027730;28;20359;-79
2023/05/07 10:06:31;;;;;;;1.27;1.00;;;25.20;1.00;;;;;;5026404;28;20029;-83
2023/05/07 10:08:59;;;;;;;2.95;1.13;;;24.20;1.00;;;;;;5026911;28;20044;-81
2023/05/07 10:11:26;;;;;;;1.20;0.75;;;25.70;1.00;;;;;;5010773;28;20057;-90
2023/05/07 10:13:53;;;;;;;2.88;1.10;;;26.50;1.00;;;;;;5027297;28;20371;-88
2023/05/07 10:16:21;;;;;;;3.30;1.17;;;25.20;1.00;;;;;;5021547;28;20034;-85
2023/05/07 10:18:50;;;;;;;2.97;1.25;;;25.70;1.00;;;;;;5029962;28;20386;-83
2023/05/07 10:21:22;;;;;;;1.80;0.93;;;25.80;1.00;;;;;;5024971;28;20439;-80
2023/05/07 10:24:10;;;;;;;1.58;1.10;;;25.70;1.00;;;;;;5045452;28;20391;-80
2023/05/07 10:26:37;;;;;;;1.40;0.80;;;25.30;1.00;;;;;;5040290;28;20065;-82
2023/05/07 10:29:14;;;;;;;1.73;0.73;;;24.30;1.00;;;;;;5042327;28;20462;-76
2023/05/07 10:32:00;;;;;;;4.68;0.90;;;23.70;1.00;;;;;;5030430;28;20052;-75
2023/05/07 10:34:35;;;;;;;1.88;1.10;;;23.00;1.00;;;;;;5022780;28;20044;-81
2023/05/07 10:37:05;;;;;;;3.15;1.30;;;23.10;1.00;;;;;;5039947;28;20038;-78
2023/05/07 10:39:35;;;;;;;1.75;0.93;;;23.50;1.00;;;;;;5042695;28;20069;-79
2023/05/07 10:42:14;;;;;;;2.67;1.13;;;23.70;1.00;;;;;;5022154;28;20042;-79
2023/05/07 10:44:46;;;;;;;2.03;1.10;;;23.60;1.00;;;;;;5028460;28;20041;-80
2023/05/07 10:47:20;;;;;;;1.23;0.80;;;23.90;1.00;;;;;;5016090;28;20046;-77
2023/05/07 10:49:50;;;;;;;;;;;23.90;1.00;;;;;;5027816;28;20037;-80
2023/05/07 10:52:24;;;;;;;1.90;1.20;;;23.50;1.00;;;;;;5006988;28;19914;-77
2023/05/07 10:55:21;;;;;;;1.95;1.10;;;23.60;1.00;;;;;;5022844;28;20037;-80
2023/05/07 10:58:21;;;;;;;2.20;1.33;;;23.90;1.00;;;;;;5026762;28;20368;-81
2023/05/07 11:00:49;;;;;;;4.05;1.20;;;23.90;1.00;;;;;;5004476;28;20045;-78
2023/05/07 11:03:26;;;;;;;1.13;0.80;;;24.00;1.00;;;;;;5032161;28;20374;-78
2023/05/07 11:06:15;;;;;;;1.98;0.90;;;24.10;1.00;;;;;;5020183;28;20044;-79
2023/05/07 11:08:51;;;;;;;2.15;1.27;;;24.10;1.00;;;;;;5025287;28;20067;-78
2023/05/07 11:11:19;;;;;;;2.28;1.17;;;24.20;1.00;;;;;;5041119;28;20058;-79
2023/05/07 11:13:51;;;;;;;3.75;0.90;;;24.10;1.00;;;;;;5027000;28;20038;-79
2023/05/07 11:16:36;;;;;;;2.10;1.10;;;24.10;1.00;;;;;;5025561;28;20048;-79
2023/05/07 11:19:16;;;;;;;2.42;1.20;;;24.50;1.00;;;;;;5026704;28;20034;-79
2023/05/07 11:21:48;;;;;;;3.83;1.35;;;24.80;1.00;;;;;;5034623;28;20056;-77
2023/05/07 11:24:42;;;;;;;1.98;1.05;;;24.60;1.00;;;;;;5026877;28;20375;-79
2023/05/07 11:27:10;;;;;;;1.67;1.02;;;24.50;1.00;;;;;;5040774;28;20045;-76
2023/05/07 11:29:37;;;;;;;1.75;0.90;;;24.70;1.00;;;;;;5038374;28;20030;-78
2023/05/07 11:32:07;;;;;;;2.10;0.82;;;24.50;1.00;;;;;;5026479;28;20046;-78
2023/05/07 11:34:56;;;;;;;2.25;0.90;;;24.30;1.00;;;;;;5022551;28;20034;-76
2023/05/07 11:37:27;;;;;;;2.65;1.08;;;24.10;1.00;;;;;;5039382;28;20335;-78
2023/05/07 11:40:09;;;;;;;2.08;1.20;;;24.30;1.00;;;;;;5037237;28;20042;-78
2023/05/07 11:42:39;;;;;;;1.83;1.10;;;24.60;1.00;;;;;;5023662;28;20095;-81
2023/05/07 11:45:07;;;;;;;1.67;1.40;;;24.50;1.00;;;;;;5042137;28;20056;-79
2023/05/07 11:47:34;;;;;;;1.38;1.15;;;24.40;1.00;;;;;;5026640;28;20021;-81
2023/05/07 11:50:05;;;;;;;1.10;0.85;;;24.60;1.00;;;;;;5028892;28;20041;-80
2023/05/07 11:52:32;;;;;;;3.58;1.13;;;24.40;1.00;;;;;;5029741;28;20143;-81
2023/05/07 11:55:03;;;;;;;2.53;1.05;;;23.90;1.00;;;;;;5023470;28;20029;-80
2023/05/07 11:57:29;;;;;;;1.65;1.10;;;24.30;1.00;;;;;;5022341;28;20025;-80
2023/05/07 11:59:59;;;;;;;2.05;1.05;;;24.40;1.00;;;;;;5023508;28;20446;-80
2023/05/07 12:02:25;;;;;;;1.00;0.70;;;24.70;1.00;;;;;;5028851;28;20040;-80
2023/05/07 12:04:52;;;;;;;3.20;1.10;;;25.30;1.00;;;;;;5020370;28;20041;-81
2023/05/07 12:07:18;;;;;;;1.98;0.93;;;25.30;1.00;;;;;;5024365;28;20026;-80
2023/05/07 12:09:45;;;;;;;4.28;1.20;;;25.10;1.00;;;;;;5030874;28;20042;-81
2023/05/07 12:12:14;;;;;;;4.95;0.93;;;25.30;1.00;;;;;;5022135;28;20040;-79
2023/05/07 12:14:41;;;;;;;2.10;1.27;;;25.60;1.00;;;;;;5021497;28;20033;-80
2023/05/07 12:17:09;;;;;;;1.38;0.80;;;25.90;1.00;;;;;;5019738;28;20037;-80
2023/05/07 12:19:36;;;;;;;2.45;1.08;;;25.80;1.00;;;;;;5023195;28;20045;-81
2023/05/07 12:22:03;;;;;;;2.30;0.93;;;25.60;1.00;;;;;;5028978;28;20069;-80
2023/05/07 12:24:49;;;;;;;2.60;1.00;;;26.10;1.00;;;;;;5029243;28;20034;-81
2023/05/07 12:27:16;;;;;;;1.95;0.90;;;25.90;1.00;;;;;;5024113;28;20030;-79
2023/05/07 12:29:50;;;;;;;1.42;1.05;;;25.90;1.00;;;;;;5026242;28;20366;-82
2023/05/07 12:32:18;;;;;;;1.17;1.00;;;25.70;1.00;;;;;;5026340;28;20048;-80
2023/05/07 12:34:45;;;;;;;1.63;1.00;;;25.30;1.00;;;;;;5027328;28;20041;-81
2023/05/07 12:37:12;;;;;;;2.45;0.90;;;25.50;1.00;;;;;;5027657;28;20021;-81
2023/05/07 12:39:44;;;;;;;2.35;0.93;;;25.70;1.00;;;;;;5023712;28;20045;-80
2023/05/07 12:42:25;;;;;;;1.25;0.88;;;26.10;1.00;;;;;;5040092;28;20045;-80
2023/05/07 12:44:52;;;;;;;3.75;1.13;;;26.20;1.00;;;;;;5025034;28;20040;-81
2023/05/07 12:47:18;;;;;;;1.42;0.73;;;26.20;1.00;;;;;;5025942;28;20029;-80
2023/05/07 12:49:46;;;;;;;2.50;0.98;;;25.70;1.00;;;;;;5024754;28;20037;-81
2023/05/07 12:52:12;;;;;;;3.50;0.82;;;25.90;1.00;;;;;;5019718;28;20387;-76
2023/05/07 12:54:38;;;;;;;2.05;1.02;;;25.50;1.00;;;;;;5023404;28;20041;-81
2023/05/07 12:57:08;;;;;;;2.22;0.77;;;25.40;1.00;;;;;;5034679;28;20034;-80
2023/05/07 12:59:41;;;;;;;4.07;1.02;;;25.50;1.00;;;;;;5021747;28;20041;-81
2023/05/07 13:02:08;;;;;;;1.60;0.70;;;25.30;1.00;;;;;;5023437;28;20028;-81